createdAt,value
2022-08-28T00:02:25.189Z,101098.38
2022-08-28T00:05:14.122Z,101095.16
2022-08-28T00:08:01.818Z,101094.94
2022-08-28T00:10:49.834Z,101095.78
2022-08-28T00:13:37.825Z,101098.84
2022-08-28T00:16:25.756Z,101097.81
2022-08-28T00:19:15.324Z,101098.75
2022-08-28T00:22:04.155Z,101105.06
2022-08-28T00:24:51.423Z,101111.63
2022-08-28T00:27:55.185Z,101112.47
2022-08-28T00:30:48.778Z,101112.94
2022-08-28T00:33:37.585Z,101109.72
2022-08-28T00:36:24.889Z,101121.66
2022-08-28T00:39:16.477Z,101107.69
2022-08-28T00:42:06.817Z,101115.78
2022-08-28T00:44:54.092Z,101092.38
2022-08-28T00:47:41.508Z,101115.56
2022-08-28T00:50:56.840Z,101122.00
2022-08-28T00:53:48.079Z,101119.28
2022-08-28T00:56:37.557Z,101118.88
2022-08-28T00:59:25.295Z,101120.22
2022-08-28T01:02:12.955Z,101116.03
2022-08-28T01:05:00.414Z,101117.94
2022-08-28T01:07:48.831Z,101119.13
2022-08-28T01:10:36.193Z,101121.75
2022-08-28T01:13:25.232Z,101127.94
2022-08-28T01:16:15.086Z,101128.50
2022-08-28T01:19:09.128Z,101130.66
2022-08-28T01:22:09.247Z,101131.84
2022-08-28T01:25:00.750Z,101128.72
2022-08-28T01:27:48.044Z,101127.06
2022-08-28T01:30:35.348Z,101126.38
2022-08-28T01:33:27.888Z,101127.31
2022-08-28T01:36:16.386Z,101126.94
2022-08-28T01:39:16.466Z,101130.91
2022-08-28T01:42:04.572Z,101130.19
2022-08-28T01:44:54.041Z,101128.00
2022-08-28T01:47:42.387Z,101125.13
2022-08-28T01:50:29.684Z,101124.44
2022-08-28T01:53:19.672Z,101117.81
2022-08-28T01:56:15.036Z,101095.56
2022-08-28T01:59:05.838Z,101121.81
2022-08-28T02:01:55.224Z,101119.81
2022-08-28T02:04:46.177Z,101128.41
2022-08-28T02:07:35.370Z,101122.78
2022-08-28T02:10:25.286Z,101129.81
2022-08-28T02:13:13.345Z,101139.56
2022-08-28T02:16:00.768Z,101142.44
2022-08-28T02:18:48.856Z,101130.03
2022-08-28T02:21:36.120Z,101150.53
2022-08-28T02:24:23.695Z,101153.13
2022-08-28T02:27:10.953Z,101151.81
2022-08-28T02:29:58.924Z,101148.25
2022-08-28T02:32:46.941Z,101157.69
2022-08-28T02:35:34.254Z,101152.22
2022-08-28T02:38:22.508Z,101153.13
2022-08-28T02:41:11.388Z,101153.00
2022-08-28T02:43:59.451Z,101156.94
2022-08-28T02:46:46.700Z,101156.94
2022-08-28T02:49:36.146Z,101150.00
2022-08-28T02:52:24.542Z,101151.63
2022-08-28T02:55:14.497Z,101142.78
2022-08-28T02:58:01.818Z,101148.28
2022-08-28T03:00:49.565Z,101145.63
2022-08-28T03:03:36.885Z,101149.19
2022-08-28T03:06:25.260Z,101146.94
2022-08-28T03:09:12.548Z,101148.84
2022-08-28T03:11:59.873Z,101147.41
2022-08-28T03:14:47.728Z,101145.94
2022-08-28T03:17:36.787Z,101148.66
2022-08-28T03:20:24.293Z,101149.69
2022-08-28T03:23:27.641Z,101145.25
2022-08-28T03:26:18.400Z,101145.09
2022-08-28T03:29:05.884Z,101152.41
2022-08-28T03:31:53.121Z,101157.72
2022-08-28T03:34:40.977Z,101152.66
2022-08-28T03:37:28.484Z,101154.31
2022-08-28T03:40:16.048Z,101152.34
2022-08-28T03:43:03.334Z,101164.28
2022-08-28T03:46:03.426Z,101161.38
2022-08-28T03:48:52.037Z,101171.31
2022-08-28T03:51:40.630Z,101171.66
2022-08-28T03:54:31.104Z,101174.19
2022-08-28T03:57:20.844Z,101174.28
2022-08-28T04:00:13.405Z,101174.28
2022-08-28T04:03:01.023Z,101165.03
2022-08-28T04:05:48.326Z,101176.16
2022-08-28T04:08:35.746Z,101181.47
2022-08-28T04:11:23.478Z,101181.00
2022-08-28T04:14:11.663Z,101172.50
2022-08-28T04:17:01.485Z,101183.91
2022-08-28T04:19:52.685Z,101181.66
2022-08-28T04:22:40.253Z,101182.13
2022-08-28T04:25:27.541Z,101182.13
2022-08-28T04:28:14.972Z,101186.28
2022-08-28T04:31:02.822Z,101188.88
2022-08-28T04:33:50.093Z,101191.97
2022-08-28T04:36:38.160Z,101196.16
2022-08-28T04:39:25.428Z,101198.75
2022-08-28T04:42:12.694Z,101197.44
2022-08-28T04:45:00.000Z,101199.78
2022-08-28T04:47:47.280Z,101202.09
2022-08-28T04:50:34.721Z,101209.25
2022-08-28T04:53:22.061Z,101206.53
2022-08-28T04:56:11.857Z,101202.53
2022-08-28T04:59:01.025Z,101198.41
2022-08-28T05:01:48.372Z,101209.03
2022-08-28T05:04:35.876Z,101213.63
2022-08-28T05:07:23.114Z,101213.00
2022-08-28T05:10:10.536Z,101218.06
2022-08-28T05:12:57.802Z,101213.72
2022-08-28T05:15:47.681Z,101218.84
2022-08-28T05:18:35.533Z,101218.78
2022-08-28T05:21:23.400Z,101229.16
2022-08-28T05:24:10.789Z,101232.97
2022-08-28T05:26:58.256Z,101236.94
2022-08-28T05:29:45.625Z,101231.13
2022-08-28T05:32:32.879Z,101234.66
2022-08-28T05:35:20.315Z,101237.38
2022-08-28T05:38:08.647Z,101236.72
2022-08-28T05:40:56.189Z,101253.56
2022-08-28T05:43:43.742Z,101263.47
2022-08-28T05:46:31.987Z,101265.19
2022-08-28T05:49:19.707Z,101256.53
2022-08-28T05:52:07.033Z,101253.34
2022-08-28T05:54:55.812Z,101260.41
2022-08-28T05:57:43.058Z,101258.19
2022-08-28T06:00:30.366Z,101261.72
2022-08-28T06:03:17.680Z,101263.94
2022-08-28T06:06:05.733Z,101262.63
2022-08-28T06:08:59.149Z,101254.69
2022-08-28T06:11:47.717Z,101264.34
2022-08-28T06:14:35.082Z,101273.75
2022-08-28T06:17:23.828Z,101269.00
2022-08-28T06:20:11.677Z,101286.34
2022-08-28T06:22:59.042Z,101275.06
2022-08-28T06:25:49.358Z,101279.66
2022-08-28T06:28:36.802Z,101271.88
2022-08-28T06:31:28.792Z,101281.59
2022-08-28T06:34:20.340Z,101281.59
2022-08-28T06:37:08.083Z,101288.31
2022-08-28T06:39:55.585Z,101297.13
2022-08-28T06:42:42.844Z,101299.16
2022-08-28T06:45:31.014Z,101302.69
2022-08-28T06:48:19.849Z,101288.84
2022-08-28T06:51:09.960Z,101304.19
2022-08-28T06:53:57.908Z,101302.47
2022-08-28T06:56:46.214Z,101296.75
2022-08-28T06:59:33.486Z,101301.47
2022-08-28T07:02:21.384Z,101304.41
2022-08-28T07:05:15.592Z,101311.47
2022-08-28T07:08:03.130Z,101291.84
2022-08-28T07:10:50.538Z,101299.50
2022-08-28T07:13:37.818Z,101297.06
2022-08-28T07:16:29.336Z,101297.03
2022-08-28T07:19:16.933Z,101293.72
2022-08-28T07:22:04.762Z,101303.03
2022-08-28T07:24:54.624Z,101310.97
2022-08-28T07:27:41.897Z,101299.75
2022-08-28T07:30:29.280Z,101305.84
2022-08-28T07:33:16.543Z,101308.88
2022-08-28T07:36:06.986Z,101310.88
2022-08-28T07:38:59.482Z,101308.75
2022-08-28T07:41:47.733Z,101316.22
2022-08-28T07:44:50.238Z,101313.72
2022-08-28T07:47:38.619Z,101320.03
2022-08-28T07:50:25.892Z,101329.19
2022-08-28T07:53:13.701Z,101330.72
2022-08-28T07:56:01.038Z,101335.16
2022-08-28T07:58:48.572Z,101334.03
2022-08-28T08:01:43.545Z,101333.94
2022-08-28T08:04:30.858Z,101338.84
2022-08-28T08:07:19.823Z,101340.00
2022-08-28T08:10:11.381Z,101342.47
2022-08-28T08:12:58.637Z,101308.22
2022-08-28T08:15:46.583Z,101345.44
2022-08-28T08:18:34.256Z,101346.88
2022-08-28T08:21:24.371Z,101338.97
2022-08-28T08:24:20.623Z,101358.31
2022-08-28T08:27:07.938Z,101375.38
2022-08-28T08:29:55.212Z,101358.75
2022-08-28T08:32:42.475Z,101352.13
2022-08-28T08:35:29.854Z,101356.72
2022-08-28T08:38:17.103Z,101337.53
2022-08-28T08:41:24.876Z,101347.03
2022-08-28T08:44:34.217Z,101366.94
2022-08-28T08:47:30.970Z,101352.06
2022-08-28T08:50:22.344Z,101361.94
2022-08-28T08:53:28.093Z,101372.00
2022-08-28T08:56:17.680Z,101368.41
2022-08-28T08:59:10.335Z,101378.78
2022-08-28T09:02:31.391Z,101378.38
2022-08-28T09:05:25.618Z,101377.94
2022-08-28T09:08:26.300Z,101378.59
2022-08-28T09:11:29.112Z,101377.19
2022-08-28T09:14:27.078Z,101386.22
2022-08-28T09:17:23.180Z,101381.66
2022-08-28T09:20:16.764Z,101378.53
2022-08-28T09:23:13.144Z,101391.19
2022-08-28T09:26:04.353Z,101384.94
2022-08-28T09:29:07.865Z,101385.03
2022-08-28T09:31:55.893Z,101387.44
2022-08-28T09:35:01.140Z,101387.00
2022-08-28T09:37:48.397Z,101398.59
2022-08-28T09:40:54.659Z,101390.81
2022-08-28T09:43:46.541Z,101384.09
2022-08-28T09:46:34.877Z,101389.22
2022-08-28T09:49:26.902Z,101386.22
2022-08-28T09:52:24.586Z,101385.56
2022-08-28T09:55:23.324Z,101380.09
2022-08-28T09:58:10.671Z,101381.50
2022-08-28T10:01:15.604Z,101380.00
2022-08-28T10:04:11.962Z,101373.75
2022-08-28T10:07:05.151Z,101374.34
2022-08-28T10:10:01.323Z,101365.47
2022-08-28T10:13:01.382Z,101361.16
2022-08-28T10:16:14.246Z,101375.38
2022-08-28T10:19:11.797Z,101375.94
2022-08-28T10:22:21.210Z,101372.25
2022-08-28T10:25:47.065Z,101377.06
2022-08-28T10:28:49.017Z,101380.28
2022-08-28T10:31:50.944Z,101372.50
2022-08-28T10:34:50.343Z,101383.44
2022-08-28T10:37:44.728Z,101380.56
2022-08-28T10:40:46.510Z,101371.97
2022-08-28T10:43:43.459Z,101354.31
2022-08-28T10:46:46.044Z,101375.31
2022-08-28T10:49:47.297Z,101368.25
2022-08-28T10:52:46.431Z,101369.22
2022-08-28T10:55:39.473Z,101359.69
2022-08-28T10:58:27.530Z,101358.25
2022-08-28T11:01:28.446Z,101363.63
2022-08-28T11:04:25.436Z,101361.13
2022-08-28T11:07:21.943Z,101367.81
2022-08-28T11:10:40.889Z,101366.81
2022-08-28T11:13:59.573Z,101362.81
2022-08-28T11:16:47.084Z,101370.50
2022-08-28T11:20:11.400Z,101368.78
2022-08-28T11:23:15.603Z,101364.47
2022-08-28T11:26:09.042Z,101359.03
2022-08-28T11:28:56.354Z,101373.56
2022-08-28T11:31:43.629Z,101370.94
2022-08-28T11:35:00.291Z,101364.50
2022-08-28T11:37:52.964Z,101358.63
2022-08-28T11:40:56.446Z,101354.50
2022-08-28T11:43:45.739Z,101353.31
2022-08-28T11:46:35.018Z,101356.16
2022-08-28T11:49:34.381Z,101375.25
2022-08-28T11:52:42.405Z,101355.38
2022-08-28T11:56:21.775Z,101356.91
2022-08-28T11:59:40.015Z,101362.03
2022-08-28T12:02:39.570Z,101360.84
2022-08-28T12:05:33.040Z,101355.44
2022-08-28T12:08:44.790Z,101354.88
2022-08-28T12:11:41.546Z,101355.41
2022-08-28T12:14:28.785Z,101367.84
2022-08-28T12:17:21.822Z,101356.53
2022-08-28T12:20:29.271Z,101352.81
2022-08-28T12:23:40.517Z,101349.25
2022-08-28T12:26:38.497Z,101353.84
2022-08-28T12:29:32.880Z,101351.22
2022-08-28T12:32:37.749Z,101348.53
2022-08-28T12:35:30.139Z,101364.47
2022-08-28T12:38:21.759Z,101340.03
2022-08-28T12:41:17.033Z,101340.31
2022-08-28T12:44:08.895Z,101345.03
2022-08-28T12:46:56.981Z,101346.13
2022-08-28T12:49:44.490Z,101328.47
2022-08-28T12:52:34.471Z,101332.16
2022-08-28T12:55:24.534Z,101338.22
2022-08-28T12:58:32.066Z,101324.53
2022-08-28T13:01:32.829Z,101327.38
2022-08-28T13:04:39.744Z,101331.38
2022-08-28T13:07:31.393Z,101326.72
2022-08-28T13:10:23.308Z,101333.00
2022-08-28T13:13:33.386Z,101328.31
2022-08-28T13:16:46.421Z,101319.13
2022-08-28T13:19:35.982Z,101310.19
2022-08-28T13:22:34.281Z,101319.84
2022-08-28T13:25:29.453Z,101322.50
2022-08-28T13:28:19.481Z,101310.81
2022-08-28T13:31:08.363Z,101312.31
2022-08-28T13:34:09.225Z,101329.84
2022-08-28T13:36:59.851Z,101312.56
2022-08-28T13:39:47.521Z,101318.00
2022-08-28T13:42:34.841Z,101311.31
2022-08-28T13:45:22.092Z,101308.44
2022-08-28T13:48:11.053Z,101308.19
2022-08-28T13:51:14.277Z,101301.97
2022-08-28T13:54:08.263Z,101306.75
2022-08-28T13:56:56.903Z,101298.31
2022-08-28T13:59:44.177Z,101298.75
2022-08-28T14:02:50.287Z,101290.63
2022-08-28T14:05:37.600Z,101289.28
2022-08-28T14:08:24.941Z,101284.78
2022-08-28T14:11:14.908Z,101286.03
2022-08-28T14:14:03.209Z,101292.78
2022-08-28T14:16:55.164Z,101284.09
2022-08-28T14:19:42.497Z,101285.25
2022-08-28T14:22:30.890Z,101280.22
2022-08-28T14:25:18.239Z,101284.09
2022-08-28T14:28:05.581Z,101290.34
2022-08-28T14:30:52.901Z,101281.53
2022-08-28T14:33:40.222Z,101276.66
2022-08-28T14:36:30.929Z,101282.56
2022-08-28T14:39:18.191Z,101277.72
2022-08-28T14:42:05.703Z,101268.56
2022-08-28T14:45:00.457Z,101277.97
2022-08-28T14:47:47.744Z,101278.06
2022-08-28T14:50:42.260Z,101281.53
2022-08-28T14:53:29.969Z,101284.84
2022-08-28T14:56:17.984Z,101269.91
2022-08-28T14:59:07.202Z,101277.34
2022-08-28T15:01:58.376Z,101273.28
2022-08-28T15:04:45.679Z,101273.50
2022-08-28T15:07:32.981Z,101278.94
2022-08-28T15:10:20.373Z,101271.78
2022-08-28T15:13:10.166Z,101283.88
2022-08-28T15:16:15.689Z,101271.44
2022-08-28T15:19:04.152Z,101274.31
2022-08-28T15:21:54.596Z,101268.16
2022-08-28T15:24:41.873Z,101268.41
2022-08-28T15:27:29.110Z,101266.91
2022-08-28T15:30:16.348Z,101276.22
2022-08-28T15:33:04.197Z,101273.91
2022-08-28T15:35:55.708Z,101265.41
2022-08-28T15:39:01.636Z,101259.66
2022-08-28T15:41:49.406Z,101259.97
2022-08-28T15:44:37.338Z,101269.31
2022-08-28T15:47:24.851Z,101261.91
2022-08-28T15:50:12.165Z,101271.50
2022-08-28T15:52:59.888Z,101259.91
2022-08-28T15:55:47.140Z,101260.03
2022-08-28T15:58:34.441Z,101251.81
2022-08-28T16:01:22.497Z,101256.97
2022-08-28T16:04:10.044Z,101271.34
2022-08-28T16:07:00.589Z,101264.59
2022-08-28T16:09:48.830Z,101260.94
2022-08-28T16:12:39.977Z,101255.59
2022-08-28T16:15:27.296Z,101250.03
2022-08-28T16:18:15.852Z,101255.69
2022-08-28T16:21:05.055Z,101249.78
2022-08-28T16:23:52.401Z,101258.31
2022-08-28T16:26:39.961Z,101253.50
2022-08-28T16:29:27.280Z,101242.31
2022-08-28T16:32:14.635Z,101257.84
2022-08-28T16:35:03.120Z,101254.00
2022-08-28T16:37:50.596Z,101254.00
2022-08-28T16:40:41.979Z,101258.34
2022-08-28T16:43:29.397Z,101255.00
2022-08-28T16:46:22.590Z,101254.69
2022-08-28T16:49:10.902Z,101253.28
2022-08-28T16:51:58.226Z,101251.00
2022-08-28T16:54:48.292Z,101256.16
2022-08-28T16:57:36.926Z,101247.31
2022-08-28T17:00:24.422Z,101249.72
2022-08-28T17:03:12.125Z,101249.97
2022-08-28T17:06:05.864Z,101259.34
2022-08-28T17:08:56.609Z,101250.22
2022-08-28T17:11:44.288Z,101250.72
2022-08-28T17:14:39.375Z,101245.97
2022-08-28T17:17:27.003Z,101242.63
2022-08-28T17:20:33.417Z,101246.13
2022-08-28T17:23:20.725Z,101244.72
2022-08-28T17:26:08.199Z,101256.50
2022-08-28T17:28:55.514Z,101258.66
2022-08-28T17:31:43.709Z,101259.13
2022-08-28T17:34:31.014Z,101271.25
2022-08-28T17:37:20.534Z,101263.47
2022-08-28T17:40:09.772Z,101266.97
2022-08-28T17:42:56.982Z,101272.16
2022-08-28T17:45:44.234Z,101267.97
2022-08-28T17:48:32.602Z,101269.22
2022-08-28T17:51:19.888Z,101264.22
2022-08-28T17:54:24.006Z,101266.84
2022-08-28T17:57:11.280Z,101268.44
2022-08-28T18:00:00.482Z,101271.88
2022-08-28T18:02:51.458Z,101272.63
2022-08-28T18:05:41.136Z,101281.88
2022-08-28T18:08:28.720Z,101271.00
2022-08-28T18:11:16.018Z,101270.66
2022-08-28T18:14:04.277Z,101270.78
2022-08-28T18:16:51.900Z,101280.63
2022-08-28T18:19:42.766Z,101273.09
2022-08-28T18:22:30.539Z,101284.59
2022-08-28T18:25:37.089Z,101280.66
2022-08-28T18:28:26.636Z,101286.63
2022-08-28T18:31:14.032Z,101289.53
2022-08-28T18:34:01.404Z,101295.50
2022-08-28T18:36:49.219Z,101295.16
2022-08-28T18:39:36.851Z,101295.53
2022-08-28T18:42:25.535Z,101298.75
2022-08-28T18:45:13.078Z,101304.75
2022-08-28T18:48:01.337Z,101314.06
2022-08-28T18:50:49.921Z,101312.81
2022-08-28T18:53:37.701Z,101309.72
2022-08-28T18:56:28.053Z,101317.59
2022-08-28T18:59:18.712Z,101313.91
2022-08-28T19:02:07.351Z,101323.25
2022-08-28T19:04:54.704Z,101327.31
2022-08-28T19:07:41.957Z,101328.84
2022-08-28T19:10:33.897Z,101334.47
2022-08-28T19:13:21.976Z,101342.94
2022-08-28T19:16:09.549Z,101347.00
2022-08-28T19:18:56.943Z,101341.50
2022-08-28T19:21:45.090Z,101344.75
2022-08-28T19:24:33.739Z,101345.06
2022-08-28T19:27:22.667Z,101339.22
2022-08-28T19:30:13.666Z,101351.28
2022-08-28T19:33:05.700Z,101344.56
2022-08-28T19:35:54.594Z,101354.75
2022-08-28T19:38:42.443Z,101349.94
2022-08-28T19:41:30.218Z,101355.91
2022-08-28T19:44:17.701Z,101359.50
2022-08-28T19:47:05.054Z,101365.94
2022-08-28T19:49:54.498Z,101358.84
2022-08-28T19:52:45.974Z,101369.84
2022-08-28T19:55:33.529Z,101369.91
2022-08-28T19:58:20.843Z,101380.06
2022-08-28T20:01:08.137Z,101388.13
2022-08-28T20:03:56.833Z,101389.69
2022-08-28T20:06:45.680Z,101388.25
2022-08-28T20:09:32.933Z,101395.03
2022-08-28T20:12:20.221Z,101393.00
2022-08-28T20:15:09.121Z,101405.75
2022-08-28T20:18:00.597Z,101392.69
2022-08-28T20:20:49.284Z,101402.94
2022-08-28T20:23:36.716Z,101399.56
2022-08-28T20:26:23.954Z,101408.47
2022-08-28T20:29:15.992Z,101405.59
2022-08-28T20:32:03.508Z,101402.25
2022-08-28T20:34:50.869Z,101390.06
2022-08-28T20:37:44.714Z,101391.81
2022-08-28T20:40:32.572Z,101407.88
2022-08-28T20:43:19.888Z,101405.34
2022-08-28T20:46:08.828Z,101406.28
2022-08-28T20:48:56.190Z,101414.75
2022-08-28T20:51:56.248Z,101415.66
2022-08-28T20:54:44.330Z,101415.03
2022-08-28T20:57:31.688Z,101417.16
2022-08-28T21:00:19.020Z,101416.53
2022-08-28T21:03:06.805Z,101414.09
2022-08-28T21:05:54.136Z,101419.38
2022-08-28T21:08:41.814Z,101425.94
2022-08-28T21:11:29.376Z,101426.19
2022-08-28T21:14:16.857Z,101433.63
2022-08-28T21:17:05.720Z,101429.69
2022-08-28T21:19:53.562Z,101434.56
2022-08-28T21:22:41.168Z,101438.00
2022-08-28T21:25:28.937Z,101443.50
2022-08-28T21:28:16.278Z,101440.19
2022-08-28T21:31:10.558Z,101447.56
2022-08-28T21:33:58.017Z,101447.34
2022-08-28T21:36:50.313Z,101445.75
2022-08-28T21:39:37.800Z,101456.09
2022-08-28T21:42:25.567Z,101455.66
2022-08-28T21:45:13.320Z,101463.94
2022-08-28T21:48:00.610Z,101450.09
2022-08-28T21:50:47.844Z,101452.66
2022-08-28T21:53:37.684Z,101457.72
2022-08-28T21:56:27.007Z,101461.53
2022-08-28T21:59:14.549Z,101462.13
2022-08-28T22:02:02.240Z,101463.63
2022-08-28T22:04:49.680Z,101464.28
2022-08-28T22:07:37.135Z,101466.22
2022-08-28T22:10:25.531Z,101468.75
2022-08-28T22:13:14.014Z,101471.31
2022-08-28T22:16:01.265Z,101480.56
2022-08-28T22:18:49.394Z,101472.59
2022-08-28T22:21:55.220Z,101476.00
2022-08-28T22:24:42.508Z,101478.31
2022-08-28T22:27:31.799Z,101471.81
2022-08-28T22:30:19.080Z,101483.41
2022-08-28T22:33:06.324Z,101474.38
2022-08-28T22:35:54.018Z,101468.50
2022-08-28T22:38:41.437Z,101478.19
2022-08-28T22:41:37.361Z,101482.41
2022-08-28T22:44:24.666Z,101487.44
2022-08-28T22:47:11.954Z,101484.06
2022-08-28T22:50:01.848Z,101478.00
2022-08-28T22:52:49.829Z,101476.06
2022-08-28T22:55:42.721Z,101476.28
2022-08-28T22:58:32.455Z,101474.63
2022-08-28T23:01:23.389Z,101482.63
2022-08-28T23:04:11.427Z,101480.13
2022-08-28T23:06:58.716Z,101476.97
2022-08-28T23:09:45.966Z,101476.53
2022-08-28T23:12:34.570Z,101482.25
2022-08-28T23:15:22.397Z,101482.25
2022-08-28T23:18:10.907Z,101485.19
2022-08-28T23:20:58.278Z,101473.16
2022-08-28T23:23:46.137Z,101480.97
2022-08-28T23:26:33.805Z,101477.19
2022-08-28T23:29:21.170Z,101488.31
2022-08-28T23:32:08.448Z,101485.41
2022-08-28T23:34:58.484Z,101480.53
2022-08-28T23:37:48.898Z,101489.19
2022-08-28T23:40:39.470Z,101487.50
2022-08-28T23:43:26.825Z,101483.72
2022-08-28T23:46:19.274Z,101489.63
2022-08-28T23:49:06.785Z,101490.25
2022-08-28T23:51:54.102Z,101489.38
2022-08-28T23:54:41.405Z,101491.91
2022-08-28T23:57:29.128Z,101498.03
